createdAt,value
2023-01-17T00:01:46.766Z,3.83
2023-01-17T00:06:07.531Z,3.77
2023-01-17T00:10:12.675Z,3.73
2023-01-17T00:14:14.698Z,3.89
2023-01-17T00:18:17.624Z,3.84
2023-01-17T00:22:43.902Z,3.79
2023-01-17T00:27:04.550Z,3.76
2023-01-17T00:31:09.094Z,3.71
2023-01-17T00:35:11.138Z,3.75
2023-01-17T00:39:13.121Z,3.82
2023-01-17T00:43:37.032Z,3.94
2023-01-17T00:47:57.557Z,4.01
2023-01-17T00:52:18.297Z,4.08
2023-01-17T00:56:38.991Z,4.13
2023-01-17T01:00:59.927Z,4.16
2023-01-17T01:05:21.175Z,4.16
2023-01-17T01:09:41.934Z,4.15
2023-01-17T01:14:02.592Z,4.13
2023-01-17T01:18:27.676Z,4.06
2023-01-17T01:22:48.287Z,4.06
2023-01-17T01:27:08.740Z,4.03
2023-01-17T01:31:29.325Z,4.03
2023-01-17T01:35:31.393Z,4.03
2023-01-17T01:39:33.401Z,4.02
2023-01-17T01:43:54.071Z,4.00
2023-01-17T01:48:22.178Z,4.01
2023-01-17T01:52:28.032Z,4.35
2023-01-17T01:56:31.646Z,4.23
2023-01-17T02:00:36.283Z,4.10
2023-01-17T02:04:38.873Z,3.99
2023-01-17T02:08:41.404Z,3.91
2023-01-17T02:12:45.103Z,3.89
2023-01-17T02:17:20.980Z,3.83
2023-01-17T02:21:27.066Z,3.70
2023-01-17T02:25:58.878Z,3.59
2023-01-17T02:30:26.288Z,3.40
2023-01-17T02:34:30.351Z,3.25
2023-01-17T02:38:52.896Z,3.13
2023-01-17T02:43:06.419Z,3.11
2023-01-17T02:47:27.965Z,3.03
2023-01-17T02:52:07.204Z,2.93
2023-01-17T02:56:17.663Z,2.85
2023-01-17T03:00:36.852Z,2.78
2023-01-17T03:04:49.146Z,2.68
2023-01-17T03:08:53.097Z,2.69
2023-01-17T03:12:58.365Z,2.77
2023-01-17T03:17:00.399Z,2.84
2023-01-17T03:21:02.383Z,2.93
2023-01-17T03:25:05.097Z,2.94
2023-01-17T03:29:07.143Z,2.97
2023-01-17T03:33:09.178Z,3.03
2023-01-17T03:37:12.324Z,3.11
2023-01-17T03:41:14.293Z,3.16
2023-01-17T03:45:16.677Z,3.17
2023-01-17T03:49:18.727Z,3.14
2023-01-17T03:53:20.713Z,3.12
2023-01-17T03:57:22.773Z,3.08
2023-01-17T04:01:25.590Z,3.08
2023-01-17T04:05:27.726Z,3.05
2023-01-17T04:09:33.938Z,3.00
2023-01-17T04:13:35.948Z,2.88
2023-01-17T04:17:37.983Z,2.76
2023-01-17T04:21:39.988Z,3.00
2023-01-17T04:25:42.301Z,2.92
2023-01-17T04:29:46.597Z,2.73
2023-01-17T04:33:48.810Z,2.55
2023-01-17T04:37:51.791Z,2.43
2023-01-17T04:41:53.841Z,2.34
2023-01-17T04:45:57.087Z,2.30
2023-01-17T04:49:59.115Z,2.23
2023-01-17T04:54:01.122Z,2.26
2023-01-17T04:58:03.254Z,2.32
2023-01-17T05:02:05.328Z,2.36
2023-01-17T05:06:07.423Z,2.51
2023-01-17T05:10:10.265Z,2.66
2023-01-17T05:14:12.235Z,2.71
2023-01-17T05:18:16.960Z,2.69
2023-01-17T05:22:18.967Z,2.61
2023-01-17T05:26:20.968Z,2.55
2023-01-17T05:30:23.321Z,2.58
2023-01-17T05:34:25.404Z,2.52
2023-01-17T05:38:27.398Z,2.38
2023-01-17T05:42:29.402Z,2.31
2023-01-17T05:46:31.481Z,2.27
2023-01-17T05:50:36.520Z,2.20
2023-01-17T05:54:38.545Z,2.14
2023-01-17T05:58:40.563Z,2.06
2023-01-17T06:02:43.154Z,2.04
2023-01-17T06:06:45.174Z,2.02
2023-01-17T06:10:47.165Z,1.97
2023-01-17T06:14:49.224Z,1.90
2023-01-17T06:18:51.188Z,1.85
2023-01-17T06:22:55.204Z,1.84
2023-01-17T06:26:57.776Z,1.72
2023-01-17T06:30:59.915Z,1.67
2023-01-17T06:35:01.971Z,1.64
2023-01-17T06:39:05.081Z,1.62
2023-01-17T06:43:07.213Z,1.64
2023-01-17T06:47:09.250Z,1.74
2023-01-17T06:51:11.631Z,1.84
2023-01-17T06:55:13.691Z,1.90
2023-01-17T06:59:15.683Z,1.88
2023-01-17T07:03:20.603Z,1.88
2023-01-17T07:07:22.668Z,1.83
2023-01-17T07:11:24.895Z,1.78
2023-01-17T07:15:27.047Z,1.76
2023-01-17T07:19:29.623Z,1.69
2023-01-17T07:23:31.610Z,1.66
2023-01-17T07:27:33.698Z,1.68
2023-01-17T07:31:38.104Z,1.69
2023-01-17T07:35:40.133Z,1.78
2023-01-17T07:39:42.413Z,1.74
2023-01-17T07:43:44.459Z,1.56
2023-01-17T07:47:47.068Z,1.57
2023-01-17T07:51:49.122Z,1.56
2023-01-17T07:55:51.409Z,1.53
2023-01-17T07:59:53.478Z,1.50
2023-01-17T08:03:55.518Z,1.56
2023-01-17T08:07:57.528Z,1.68
2023-01-17T08:11:59.539Z,1.71
2023-01-17T08:16:04.463Z,1.70
2023-01-17T08:20:06.754Z,1.55
2023-01-17T08:24:13.595Z,1.55
2023-01-17T08:28:15.945Z,1.67
2023-01-17T08:32:18.009Z,1.81
2023-01-17T08:36:20.182Z,1.96
2023-01-17T08:40:23.360Z,2.15
2023-01-17T08:44:25.449Z,2.20
2023-01-17T08:48:27.455Z,2.29
2023-01-17T08:52:29.503Z,2.33
2023-01-17T08:56:31.528Z,2.38
2023-01-17T09:00:34.282Z,2.43
2023-01-17T09:04:36.373Z,2.51
2023-01-17T09:08:38.921Z,2.64
2023-01-17T09:12:40.947Z,2.74
2023-01-17T09:16:42.959Z,2.84
2023-01-17T09:20:44.991Z,2.94
2023-01-17T09:24:47.018Z,3.02
2023-01-17T09:28:49.476Z,3.10
2023-01-17T09:32:53.151Z,3.19
2023-01-17T09:36:56.857Z,3.29
2023-01-17T09:40:58.958Z,3.39
2023-01-17T09:45:01.167Z,3.47
2023-01-17T09:49:08.514Z,3.50
2023-01-17T09:53:16.048Z,3.54
2023-01-17T09:57:38.305Z,3.65
2023-01-17T10:01:58.784Z,3.77
2023-01-17T10:06:38.615Z,3.87
2023-01-17T10:10:43.243Z,3.92
2023-01-17T10:15:02.994Z,4.01
2023-01-17T10:19:33.162Z,4.08
2023-01-17T10:23:55.648Z,4.10
2023-01-17T10:28:00.108Z,4.19
2023-01-17T10:32:03.201Z,4.27
2023-01-17T10:36:15.319Z,4.40
2023-01-17T10:40:44.296Z,4.50
2023-01-17T10:44:59.369Z,4.60
2023-01-17T10:49:03.594Z,4.71
2023-01-17T10:53:31.502Z,4.67
2023-01-17T10:57:42.877Z,4.55
2023-01-17T11:01:45.482Z,4.38
2023-01-17T11:06:16.101Z,4.23
2023-01-17T11:10:40.173Z,4.11
2023-01-17T11:14:54.208Z,4.07
2023-01-17T11:19:15.130Z,4.00
2023-01-17T11:23:22.335Z,3.96
2023-01-17T11:27:24.250Z,3.92
2023-01-17T11:31:27.283Z,3.85
2023-01-17T11:35:30.954Z,3.89
2023-01-17T11:39:33.012Z,3.98
2023-01-17T11:43:53.159Z,4.16
2023-01-17T11:48:04.827Z,4.35
2023-01-17T11:52:11.570Z,4.45
2023-01-17T11:56:35.761Z,4.53
2023-01-17T12:00:45.874Z,4.45
2023-01-17T12:05:00.550Z,4.40
2023-01-17T12:09:24.783Z,4.34
2023-01-17T12:14:01.199Z,4.29
2023-01-17T12:18:30.709Z,4.18
2023-01-17T12:22:56.382Z,4.17
2023-01-17T12:27:38.150Z,4.23
2023-01-17T12:31:56.537Z,4.17
2023-01-17T12:36:02.975Z,4.23
2023-01-17T12:40:42.725Z,4.41
2023-01-17T12:45:09.658Z,4.35
2023-01-17T12:49:26.935Z,4.28
2023-01-17T12:53:38.123Z,4.32
2023-01-17T12:57:45.432Z,4.41
2023-01-17T13:01:58.052Z,4.58
2023-01-17T13:06:03.224Z,4.77
2023-01-17T13:10:26.439Z,4.74
2023-01-17T13:14:28.731Z,4.71
2023-01-17T13:18:33.199Z,4.73
2023-01-17T13:22:39.244Z,4.64
2023-01-17T13:26:50.364Z,4.58
2023-01-17T13:31:10.586Z,4.45
2023-01-17T13:35:35.907Z,4.26
2023-01-17T13:39:51.655Z,4.25
2023-01-17T13:44:12.763Z,4.32
2023-01-17T13:48:18.619Z,4.32
2023-01-17T13:52:20.578Z,4.20
2023-01-17T13:56:22.508Z,4.04
2023-01-17T14:00:27.504Z,3.88
2023-01-17T14:05:07.973Z,3.71
2023-01-17T14:09:31.091Z,3.57
2023-01-17T14:13:39.907Z,3.51
2023-01-17T14:17:50.822Z,3.50
2023-01-17T14:22:15.102Z,3.53
2023-01-17T14:26:21.859Z,3.63
2023-01-17T14:30:33.644Z,3.76
2023-01-17T14:34:36.525Z,3.87
2023-01-17T14:38:42.776Z,3.89
2023-01-17T14:42:47.074Z,3.92
2023-01-17T14:46:49.258Z,3.93
2023-01-17T14:50:54.171Z,3.85
2023-01-17T14:54:56.195Z,3.81
2023-01-17T14:59:21.025Z,3.71
2023-01-17T15:03:23.177Z,3.62
2023-01-17T15:07:27.237Z,3.49
2023-01-17T15:11:33.561Z,3.29
2023-01-17T15:15:39.490Z,3.08
2023-01-17T15:19:47.819Z,2.98
2023-01-17T15:23:55.225Z,2.98
2023-01-17T15:27:57.654Z,2.90
2023-01-17T15:32:05.623Z,2.79
2023-01-17T15:36:13.316Z,2.71
2023-01-17T15:40:24.315Z,2.59
2023-01-17T15:44:48.083Z,2.46
2023-01-17T15:48:51.764Z,2.42
2023-01-17T15:53:02.939Z,2.37
2023-01-17T15:57:23.349Z,2.33
2023-01-17T16:01:28.462Z,2.32
2023-01-17T16:05:33.914Z,2.33
2023-01-17T16:09:43.801Z,2.30
2023-01-17T16:13:47.325Z,2.22
2023-01-17T16:18:11.160Z,2.16
2023-01-17T16:22:13.316Z,2.06
2023-01-17T16:26:15.858Z,1.98
2023-01-17T16:30:19.862Z,1.89
2023-01-17T16:34:23.851Z,1.86
2023-01-17T16:38:26.088Z,1.83
2023-01-17T16:42:28.691Z,1.76
2023-01-17T16:46:30.920Z,1.71
2023-01-17T16:50:33.131Z,1.72
2023-01-17T16:54:35.226Z,1.84
2023-01-17T16:58:37.499Z,1.65
2023-01-17T17:02:40.646Z,1.43
2023-01-17T17:06:42.854Z,1.34
2023-01-17T17:10:44.879Z,1.41
2023-01-17T17:14:46.952Z,1.30
2023-01-17T17:18:57.905Z,1.24
2023-01-17T17:22:59.977Z,1.21
2023-01-17T17:27:02.025Z,1.17
2023-01-17T17:31:06.893Z,1.18
2023-01-17T17:35:09.300Z,1.14
2023-01-17T17:39:14.767Z,1.19
2023-01-17T17:43:16.903Z,1.23
2023-01-17T17:47:19.273Z,1.23
2023-01-17T17:51:30.303Z,1.16
2023-01-17T17:55:32.738Z,1.12
2023-01-17T17:59:34.830Z,1.17
2023-01-17T18:03:37.227Z,1.10
2023-01-17T18:07:39.326Z,0.98
2023-01-17T18:11:42.878Z,0.79
2023-01-17T18:15:45.017Z,0.73
2023-01-17T18:19:47.333Z,0.74
2023-01-17T18:23:53.008Z,0.78
2023-01-17T18:27:56.409Z,0.80
2023-01-17T18:31:58.573Z,0.73
2023-01-17T18:36:01.732Z,0.72
2023-01-17T18:40:05.207Z,0.71
2023-01-17T18:44:07.770Z,0.73
2023-01-17T18:48:09.925Z,0.69
2023-01-17T18:52:12.063Z,0.72
2023-01-17T18:56:17.960Z,0.72
2023-01-17T19:00:20.578Z,0.61
2023-01-17T19:04:22.812Z,0.56
2023-01-17T19:08:24.903Z,0.56
2023-01-17T19:12:26.939Z,0.60
2023-01-17T19:16:31.595Z,0.69
2023-01-17T19:20:35.023Z,0.84
2023-01-17T19:24:38.308Z,1.02
2023-01-17T19:28:48.957Z,1.13
2023-01-17T19:32:56.079Z,1.17
2023-01-17T19:36:58.171Z,1.34
2023-01-17T19:41:28.489Z,1.47
2023-01-17T19:45:30.844Z,1.56
2023-01-17T19:49:33.991Z,1.65
2023-01-17T19:53:37.245Z,1.72
2023-01-17T19:57:40.563Z,1.71
2023-01-17T20:01:42.884Z,1.71
2023-01-17T20:05:46.157Z,1.70
2023-01-17T20:09:48.273Z,1.65
2023-01-17T20:13:55.831Z,1.69
2023-01-17T20:17:58.319Z,1.73
2023-01-17T20:22:00.779Z,1.74
2023-01-17T20:26:03.505Z,1.80
2023-01-17T20:30:19.312Z,1.75
2023-01-17T20:34:25.603Z,1.70
2023-01-17T20:38:43.678Z,1.57
2023-01-17T20:42:45.785Z,1.52
2023-01-17T20:46:48.194Z,1.46
2023-01-17T20:50:50.354Z,1.23
2023-01-17T20:54:52.621Z,1.24
2023-01-17T20:58:54.975Z,1.27
2023-01-17T21:02:57.059Z,1.34
2023-01-17T21:06:59.248Z,1.28
2023-01-17T21:11:01.486Z,1.24
2023-01-17T21:15:04.441Z,1.22
2023-01-17T21:19:09.138Z,1.08
2023-01-17T21:23:17.972Z,1.10
2023-01-17T21:27:21.595Z,1.09
2023-01-17T21:31:29.086Z,1.09
2023-01-17T21:35:31.682Z,1.06
2023-01-17T21:39:33.737Z,1.11
2023-01-17T21:43:38.279Z,1.20
2023-01-17T21:47:44.427Z,1.31
2023-01-17T21:51:55.323Z,1.36
2023-01-17T21:56:23.801Z,1.40
2023-01-17T22:00:25.862Z,1.42
2023-01-17T22:04:29.454Z,1.42
2023-01-17T22:08:37.974Z,1.39
2023-01-17T22:12:40.049Z,1.35
2023-01-17T22:16:42.143Z,1.25
2023-01-17T22:20:44.286Z,1.12
2023-01-17T22:24:46.879Z,1.19
2023-01-17T22:28:49.023Z,1.09
2023-01-17T22:32:51.159Z,0.89
2023-01-17T22:36:53.588Z,0.83
2023-01-17T22:41:07.819Z,0.91
2023-01-17T22:45:10.545Z,0.91
2023-01-17T22:49:13.944Z,0.93
2023-01-17T22:53:16.060Z,0.98
2023-01-17T22:57:18.345Z,0.94
2023-01-17T23:01:21.340Z,0.87
2023-01-17T23:05:23.511Z,0.73
2023-01-17T23:09:25.800Z,0.71
2023-01-17T23:13:27.875Z,0.78
2023-01-17T23:17:48.747Z,0.77
2023-01-17T23:22:11.979Z,0.75
2023-01-17T23:26:14.020Z,0.71
2023-01-17T23:30:23.527Z,0.69
2023-01-17T23:34:25.727Z,0.69
2023-01-17T23:38:30.806Z,0.68
2023-01-17T23:42:51.632Z,0.67
2023-01-17T23:46:53.736Z,0.65
2023-01-17T23:51:06.917Z,0.53
2023-01-17T23:55:09.379Z,0.41
2023-01-17T23:59:11.548Z,0.51
